sensor_id;sensor_type;location;lat;lon;timestamp;P1;durP1;ratioP1;P2;durP2;ratioP2
65368;SDS011;51970;53.484;49.488;2023-08-24T00:01:28;15.23;;;7.10;;
65368;SDS011;51970;53.484;49.488;2023-08-24T00:03:54;18.17;;;7.88;;
65368;SDS011;51970;53.484;49.488;2023-08-24T00:06:20;17.05;;;9.57;;
65368;SDS011;51970;53.484;49.488;2023-08-24T00:08:47;12.75;;;7.03;;
65368;SDS011;51970;53.484;49.488;2023-08-24T00:11:13;17.33;;;10.32;;
65368;SDS011;51970;53.484;49.488;2023-08-24T00:13:41;19.73;;;7.07;;
65368;SDS011;51970;53.484;49.488;2023-08-24T00:16:17;15.32;;;9.15;;
65368;SDS011;51970;53.484;49.488;2023-08-24T00:18:45;13.15;;;6.65;;
65368;SDS011;51970;53.484;49.488;2023-08-24T00:21:15;14.15;;;8.90;;
65368;SDS011;51970;53.484;49.488;2023-08-24T00:23:43;16.20;;;6.60;;
65368;SDS011;51970;53.484;49.488;2023-08-24T00:26:10;15.63;;;6.80;;
65368;SDS011;51970;53.484;49.488;2023-08-24T00:28:36;12.95;;;6.55;;
65368;SDS011;51970;53.484;49.488;2023-08-24T00:31:02;13.85;;;6.45;;
65368;SDS011;51970;53.484;49.488;2023-08-24T00:33:28;16.05;;;6.88;;
65368;SDS011;51970;53.484;49.488;2023-08-24T00:35:59;13.52;;;7.03;;
65368;SDS011;51970;53.484;49.488;2023-08-24T00:38:28;17.95;;;8.68;;
65368;SDS011;51970;53.484;49.488;2023-08-24T00:40:58;13.35;;;8.82;;
65368;SDS011;51970;53.484;49.488;2023-08-24T00:43:25;17.45;;;8.52;;
65368;SDS011;51970;53.484;49.488;2023-08-24T00:45:52;15.43;;;9.20;;
65368;SDS011;51970;53.484;49.488;2023-08-24T00:48:20;18.33;;;8.77;;
65368;SDS011;51970;53.484;49.488;2023-08-24T00:50:52;17.65;;;6.85;;
65368;SDS011;51970;53.484;49.488;2023-08-24T00:53:19;10.65;;;5.38;;
65368;SDS011;51970;53.484;49.488;2023-08-24T00:55:46;13.55;;;8.70;;
65368;SDS011;51970;53.484;49.488;2023-08-24T00:58:13;15.93;;;9.10;;
65368;SDS011;51970;53.484;49.488;2023-08-24T01:00:40;16.48;;;8.77;;
65368;SDS011;51970;53.484;49.488;2023-08-24T01:03:07;13.55;;;7.18;;
65368;SDS011;51970;53.484;49.488;2023-08-24T01:05:33;12.25;;;6.75;;
65368;SDS011;51970;53.484;49.488;2023-08-24T01:07:59;16.00;;;6.32;;
65368;SDS011;51970;53.484;49.488;2023-08-24T01:10:26;20.52;;;8.48;;
65368;SDS011;51970;53.484;49.488;2023-08-24T01:13:07;19.63;;;8.10;;
65368;SDS011;51970;53.484;49.488;2023-08-24T01:15:38;19.58;;;5.90;;
65368;SDS011;51970;53.484;49.488;2023-08-24T01:18:29;24.58;;;6.38;;
65368;SDS011;51970;53.484;49.488;2023-08-24T01:20:56;16.00;;;5.05;;
65368;SDS011;51970;53.484;49.488;2023-08-24T01:23:41;15.70;;;7.88;;
65368;SDS011;51970;53.484;49.488;2023-08-24T01:26:11;18.30;;;8.00;;
65368;SDS011;51970;53.484;49.488;2023-08-24T01:28:44;16.70;;;5.68;;
65368;SDS011;51970;53.484;49.488;2023-08-24T01:31:13;11.52;;;5.20;;
65368;SDS011;51970;53.484;49.488;2023-08-24T01:33:41;15.20;;;8.10;;
65368;SDS011;51970;53.484;49.488;2023-08-24T01:36:08;16.50;;;6.13;;
65368;SDS011;51970;53.484;49.488;2023-08-24T01:38:35;15.38;;;5.70;;
65368;SDS011;51970;53.484;49.488;2023-08-24T01:43:56;14.65;;;5.32;;
65368;SDS011;51970;53.484;49.488;2023-08-24T01:46:24;11.02;;;4.85;;
65368;SDS011;51970;53.484;49.488;2023-08-24T01:48:52;12.32;;;5.68;;
65368;SDS011;51970;53.484;49.488;2023-08-24T01:51:20;14.82;;;8.02;;
65368;SDS011;51970;53.484;49.488;2023-08-24T01:53:46;14.60;;;8.95;;
65368;SDS011;51970;53.484;49.488;2023-08-24T01:56:14;13.68;;;6.32;;
65368;SDS011;51970;53.484;49.488;2023-08-24T01:58:41;17.00;;;6.07;;
65368;SDS011;51970;53.484;49.488;2023-08-24T02:01:08;19.42;;;7.65;;
65368;SDS011;51970;53.484;49.488;2023-08-24T02:03:36;13.55;;;8.85;;
65368;SDS011;51970;53.484;49.488;2023-08-24T02:06:04;22.77;;;8.73;;
65368;SDS011;51970;53.484;49.488;2023-08-24T02:08:32;13.73;;;5.97;;
65368;SDS011;51970;53.484;49.488;2023-08-24T02:10:59;14.07;;;9.23;;
65368;SDS011;51970;53.484;49.488;2023-08-24T02:13:25;14.55;;;10.45;;
65368;SDS011;51970;53.484;49.488;2023-08-24T02:16:00;25.98;;;5.72;;
65368;SDS011;51970;53.484;49.488;2023-08-24T02:18:27;22.02;;;8.07;;
65368;SDS011;51970;53.484;49.488;2023-08-24T02:20:53;17.08;;;8.55;;
65368;SDS011;51970;53.484;49.488;2023-08-24T02:23:19;16.58;;;8.85;;
65368;SDS011;51970;53.484;49.488;2023-08-24T02:25:46;18.80;;;6.78;;
65368;SDS011;51970;53.484;49.488;2023-08-24T02:28:12;17.92;;;8.30;;
65368;SDS011;51970;53.484;49.488;2023-08-24T02:30:38;19.27;;;10.43;;
65368;SDS011;51970;53.484;49.488;2023-08-24T02:33:05;13.35;;;8.93;;
65368;SDS011;51970;53.484;49.488;2023-08-24T02:35:31;21.60;;;6.32;;
65368;SDS011;51970;53.484;49.488;2023-08-24T02:37:57;19.52;;;8.07;;
65368;SDS011;51970;53.484;49.488;2023-08-24T02:40:24;20.42;;;10.15;;
65368;SDS011;51970;53.484;49.488;2023-08-24T02:42:50;15.48;;;8.02;;
65368;SDS011;51970;53.484;49.488;2023-08-24T02:45:16;17.23;;;10.20;;
65368;SDS011;51970;53.484;49.488;2023-08-24T02:47:42;19.58;;;10.10;;
65368;SDS011;51970;53.484;49.488;2023-08-24T02:50:09;19.50;;;7.63;;
65368;SDS011;51970;53.484;49.488;2023-08-24T02:52:35;21.40;;;8.45;;
65368;SDS011;51970;53.484;49.488;2023-08-24T02:55:02;20.55;;;11.00;;
65368;SDS011;51970;53.484;49.488;2023-08-24T02:57:29;27.90;;;11.82;;
65368;SDS011;51970;53.484;49.488;2023-08-24T02:59:55;24.52;;;10.98;;
65368;SDS011;51970;53.484;49.488;2023-08-24T03:02:22;21.10;;;8.35;;
65368;SDS011;51970;53.484;49.488;2023-08-24T03:04:48;19.05;;;10.20;;
65368;SDS011;51970;53.484;49.488;2023-08-24T03:07:14;14.95;;;6.97;;
65368;SDS011;51970;53.484;49.488;2023-08-24T03:09:40;35.83;;;9.27;;
65368;SDS011;51970;53.484;49.488;2023-08-24T03:12:07;14.40;;;8.40;;
65368;SDS011;51970;53.484;49.488;2023-08-24T03:14:33;16.95;;;8.85;;
65368;SDS011;51970;53.484;49.488;2023-08-24T03:16:59;17.52;;;8.70;;
65368;SDS011;51970;53.484;49.488;2023-08-24T03:19:26;15.75;;;6.25;;
65368;SDS011;51970;53.484;49.488;2023-08-24T03:21:52;17.15;;;8.75;;
65368;SDS011;51970;53.484;49.488;2023-08-24T03:24:19;14.23;;;6.75;;
65368;SDS011;51970;53.484;49.488;2023-08-24T03:26:45;12.85;;;6.50;;
65368;SDS011;51970;53.484;49.488;2023-08-24T03:29:12;13.48;;;6.10;;
65368;SDS011;51970;53.484;49.488;2023-08-24T03:31:38;20.02;;;8.70;;
65368;SDS011;51970;53.484;49.488;2023-08-24T03:34:04;22.60;;;12.05;;
65368;SDS011;51970;53.484;49.488;2023-08-24T03:36:31;50.45;;;42.20;;
65368;SDS011;51970;53.484;49.488;2023-08-24T03:38:57;26.45;;;18.95;;
65368;SDS011;51970;53.484;49.488;2023-08-24T03:41:23;44.63;;;35.83;;
65368;SDS011;51970;53.484;49.488;2023-08-24T03:43:49;42.55;;;33.80;;
65368;SDS011;51970;53.484;49.488;2023-08-24T03:46:16;23.95;;;17.55;;
65368;SDS011;51970;53.484;49.488;2023-08-24T03:48:42;20.40;;;15.82;;
65368;SDS011;51970;53.484;49.488;2023-08-24T03:51:08;17.95;;;10.48;;
65368;SDS011;51970;53.484;49.488;2023-08-24T03:53:34;18.30;;;9.07;;
65368;SDS011;51970;53.484;49.488;2023-08-24T03:56:02;15.00;;;8.43;;
65368;SDS011;51970;53.484;49.488;2023-08-24T03:58:28;16.70;;;9.55;;
65368;SDS011;51970;53.484;49.488;2023-08-24T04:00:55;12.40;;;7.07;;
65368;SDS011;51970;53.484;49.488;2023-08-24T04:03:21;12.30;;;7.95;;
65368;SDS011;51970;53.484;49.488;2023-08-24T04:05:47;22.15;;;9.10;;
65368;SDS011;51970;53.484;49.488;2023-08-24T04:08:13;17.50;;;8.52;;
65368;SDS011;51970;53.484;49.488;2023-08-24T04:10:40;14.18;;;8.48;;
65368;SDS011;51970;53.484;49.488;2023-08-24T04:13:06;12.10;;;5.68;;
65368;SDS011;51970;53.484;49.488;2023-08-24T04:15:32;17.27;;;8.70;;
65368;SDS011;51970;53.484;49.488;2023-08-24T04:17:59;14.48;;;8.05;;
65368;SDS011;51970;53.484;49.488;2023-08-24T04:20:25;14.95;;;9.88;;
65368;SDS011;51970;53.484;49.488;2023-08-24T04:22:51;13.75;;;7.47;;
65368;SDS011;51970;53.484;49.488;2023-08-24T04:25:18;17.65;;;8.00;;
65368;SDS011;51970;53.484;49.488;2023-08-24T04:27:44;14.35;;;8.93;;
65368;SDS011;51970;53.484;49.488;2023-08-24T04:30:10;11.82;;;7.65;;
65368;SDS011;51970;53.484;49.488;2023-08-24T04:32:37;11.02;;;6.65;;
65368;SDS011;51970;53.484;49.488;2023-08-24T04:35:04;16.20;;;7.20;;
65368;SDS011;51970;53.484;49.488;2023-08-24T04:37:30;9.48;;;5.43;;
65368;SDS011;51970;53.484;49.488;2023-08-24T04:39:56;9.57;;;6.50;;
65368;SDS011;51970;53.484;49.488;2023-08-24T04:42:23;9.63;;;5.68;;
65368;SDS011;51970;53.484;49.488;2023-08-24T04:44:50;7.10;;;4.63;;
65368;SDS011;51970;53.484;49.488;2023-08-24T04:47:17;7.82;;;4.97;;
65368;SDS011;51970;53.484;49.488;2023-08-24T04:49:43;6.55;;;3.53;;
65368;SDS011;51970;53.484;49.488;2023-08-24T04:52:09;10.23;;;5.30;;
65368;SDS011;51970;53.484;49.488;2023-08-24T04:54:36;12.43;;;5.57;;
65368;SDS011;51970;53.484;49.488;2023-08-24T04:57:02;9.45;;;5.22;;
65368;SDS011;51970;53.484;49.488;2023-08-24T04:59:28;10.27;;;4.70;;
65368;SDS011;51970;53.484;49.488;2023-08-24T05:01:54;9.40;;;3.30;;
65368;SDS011;51970;53.484;49.488;2023-08-24T05:04:21;11.15;;;4.50;;
65368;SDS011;51970;53.484;49.488;2023-08-24T05:06:47;7.55;;;4.53;;
65368;SDS011;51970;53.484;49.488;2023-08-24T05:09:14;14.70;;;4.85;;
65368;SDS011;51970;53.484;49.488;2023-08-24T05:11:40;7.30;;;3.17;;
65368;SDS011;51970;53.484;49.488;2023-08-24T05:14:06;8.60;;;3.53;;
65368;SDS011;51970;53.484;49.488;2023-08-24T05:16:32;37.75;;;16.85;;
65368;SDS011;51970;53.484;49.488;2023-08-24T05:18:58;18.02;;;8.30;;
65368;SDS011;51970;53.484;49.488;2023-08-24T05:21:24;19.88;;;7.28;;
65368;SDS011;51970;53.484;49.488;2023-08-24T05:23:50;11.80;;;4.97;;
65368;SDS011;51970;53.484;49.488;2023-08-24T05:26:16;10.20;;;5.78;;
65368;SDS011;51970;53.484;49.488;2023-08-24T05:28:47;22.27;;;8.68;;
65368;SDS011;51970;53.484;49.488;2023-08-24T05:31:13;11.05;;;5.93;;
65368;SDS011;51970;53.484;49.488;2023-08-24T05:33:39;8.85;;;2.75;;
65368;SDS011;51970;53.484;49.488;2023-08-24T05:36:05;12.98;;;5.28;;
65368;SDS011;51970;53.484;49.488;2023-08-24T05:38:32;7.35;;;4.10;;
65368;SDS011;51970;53.484;49.488;2023-08-24T05:40:58;11.50;;;3.95;;
65368;SDS011;51970;53.484;49.488;2023-08-24T05:43:24;11.70;;;4.43;;
65368;SDS011;51970;53.484;49.488;2023-08-24T05:45:50;9.52;;;3.22;;
65368;SDS011;51970;53.484;49.488;2023-08-24T05:48:16;9.55;;;2.75;;
65368;SDS011;51970;53.484;49.488;2023-08-24T05:50:43;6.85;;;3.03;;
65368;SDS011;51970;53.484;49.488;2023-08-24T05:53:10;10.20;;;2.78;;
65368;SDS011;51970;53.484;49.488;2023-08-24T05:55:37;9.25;;;5.15;;
65368;SDS011;51970;53.484;49.488;2023-08-24T05:58:03;7.68;;;2.63;;
65368;SDS011;51970;53.484;49.488;2023-08-24T06:00:30;10.70;;;4.15;;
65368;SDS011;51970;53.484;49.488;2023-08-24T06:02:56;6.75;;;2.47;;
65368;SDS011;51970;53.484;49.488;2023-08-24T06:05:22;8.00;;;4.72;;
65368;SDS011;51970;53.484;49.488;2023-08-24T06:07:48;8.32;;;4.60;;
65368;SDS011;51970;53.484;49.488;2023-08-24T06:10:15;8.05;;;3.75;;
65368;SDS011;51970;53.484;49.488;2023-08-24T06:12:41;10.93;;;5.75;;
65368;SDS011;51970;53.484;49.488;2023-08-24T06:15:07;7.70;;;3.03;;
65368;SDS011;51970;53.484;49.488;2023-08-24T06:17:36;7.65;;;5.03;;
65368;SDS011;51970;53.484;49.488;2023-08-24T06:20:03;13.75;;;3.65;;
65368;SDS011;51970;53.484;49.488;2023-08-24T06:22:29;6.20;;;3.60;;
65368;SDS011;51970;53.484;49.488;2023-08-24T06:24:56;7.93;;;4.18;;
65368;SDS011;51970;53.484;49.488;2023-08-24T06:27:25;13.15;;;4.88;;
65368;SDS011;51970;53.484;49.488;2023-08-24T06:29:52;8.63;;;6.40;;
65368;SDS011;51970;53.484;49.488;2023-08-24T06:32:18;6.53;;;4.10;;
65368;SDS011;51970;53.484;49.488;2023-08-24T06:34:44;13.15;;;6.38;;
65368;SDS011;51970;53.484;49.488;2023-08-24T06:37:11;19.08;;;8.45;;
65368;SDS011;51970;53.484;49.488;2023-08-24T06:39:37;44.15;;;28.02;;
65368;SDS011;51970;53.484;49.488;2023-08-24T06:42:03;45.65;;;30.27;;
65368;SDS011;51970;53.484;49.488;2023-08-24T06:44:30;29.08;;;18.83;;
65368;SDS011;51970;53.484;49.488;2023-08-24T06:46:56;14.18;;;6.28;;
65368;SDS011;51970;53.484;49.488;2023-08-24T06:49:22;25.27;;;15.13;;
65368;SDS011;51970;53.484;49.488;2023-08-24T06:51:48;8.60;;;4.68;;
65368;SDS011;51970;53.484;49.488;2023-08-24T06:54:15;12.70;;;8.45;;
65368;SDS011;51970;53.484;49.488;2023-08-24T06:56:41;12.25;;;4.00;;
65368;SDS011;51970;53.484;49.488;2023-08-24T06:59:09;14.90;;;7.30;;
65368;SDS011;51970;53.484;49.488;2023-08-24T07:01:36;17.77;;;7.88;;
65368;SDS011;51970;53.484;49.488;2023-08-24T07:04:03;13.63;;;6.85;;
65368;SDS011;51970;53.484;49.488;2023-08-24T07:06:29;13.05;;;7.35;;
65368;SDS011;51970;53.484;49.488;2023-08-24T07:08:55;12.32;;;7.43;;
65368;SDS011;51970;53.484;49.488;2023-08-24T07:11:21;10.38;;;4.55;;
65368;SDS011;51970;53.484;49.488;2023-08-24T07:13:49;18.48;;;10.30;;
65368;SDS011;51970;53.484;49.488;2023-08-24T07:16:16;16.08;;;8.50;;
65368;SDS011;51970;53.484;49.488;2023-08-24T07:18:42;13.80;;;7.38;;
65368;SDS011;51970;53.484;49.488;2023-08-24T07:21:08;14.77;;;4.35;;
65368;SDS011;51970;53.484;49.488;2023-08-24T07:23:35;20.05;;;9.57;;
65368;SDS011;51970;53.484;49.488;2023-08-24T07:26:01;12.45;;;7.00;;
65368;SDS011;51970;53.484;49.488;2023-08-24T07:28:27;11.30;;;6.78;;
65368;SDS011;51970;53.484;49.488;2023-08-24T07:30:53;10.30;;;5.68;;
65368;SDS011;51970;53.484;49.488;2023-08-24T07:33:21;9.60;;;6.18;;
65368;SDS011;51970;53.484;49.488;2023-08-24T07:35:48;7.97;;;5.03;;
65368;SDS011;51970;53.484;49.488;2023-08-24T07:38:14;8.48;;;5.72;;
65368;SDS011;51970;53.484;49.488;2023-08-24T07:40:40;11.35;;;6.95;;
65368;SDS011;51970;53.484;49.488;2023-08-24T07:43:06;11.20;;;5.40;;
65368;SDS011;51970;53.484;49.488;2023-08-24T07:45:33;16.45;;;7.60;;
65368;SDS011;51970;53.484;49.488;2023-08-24T07:47:59;7.80;;;4.88;;
65368;SDS011;51970;53.484;49.488;2023-08-24T07:50:26;9.93;;;3.83;;
65368;SDS011;51970;53.484;49.488;2023-08-24T07:52:52;10.15;;;6.07;;
65368;SDS011;51970;53.484;49.488;2023-08-24T07:55:18;9.93;;;5.50;;
65368;SDS011;51970;53.484;49.488;2023-08-24T07:57:44;10.02;;;5.97;;
65368;SDS011;51970;53.484;49.488;2023-08-24T08:00:15;9.68;;;6.05;;
65368;SDS011;51970;53.484;49.488;2023-08-24T08:02:41;12.77;;;5.40;;
65368;SDS011;51970;53.484;49.488;2023-08-24T08:05:07;8.98;;;5.75;;
65368;SDS011;51970;53.484;49.488;2023-08-24T08:07:35;9.52;;;3.90;;
65368;SDS011;51970;53.484;49.488;2023-08-24T08:10:01;10.80;;;5.55;;
65368;SDS011;51970;53.484;49.488;2023-08-24T08:12:28;10.00;;;5.50;;
65368;SDS011;51970;53.484;49.488;2023-08-24T08:14:55;11.98;;;7.20;;
65368;SDS011;51970;53.484;49.488;2023-08-24T08:17:21;6.32;;;3.00;;
65368;SDS011;51970;53.484;49.488;2023-08-24T08:19:48;10.55;;;3.63;;
65368;SDS011;51970;53.484;49.488;2023-08-24T08:22:14;10.15;;;4.63;;
65368;SDS011;51970;53.484;49.488;2023-08-24T08:24:40;11.55;;;5.53;;
65368;SDS011;51970;53.484;49.488;2023-08-24T08:27:08;7.45;;;4.57;;
65368;SDS011;51970;53.484;49.488;2023-08-24T08:29:34;6.55;;;3.10;;
65368;SDS011;51970;53.484;49.488;2023-08-24T08:32:00;9.38;;;5.15;;
65368;SDS011;51970;53.484;49.488;2023-08-24T08:34:26;13.07;;;8.48;;
65368;SDS011;51970;53.484;49.488;2023-08-24T08:36:52;7.15;;;2.60;;
65368;SDS011;51970;53.484;49.488;2023-08-24T08:39:18;7.05;;;4.28;;
65368;SDS011;51970;53.484;49.488;2023-08-24T08:41:44;8.07;;;2.67;;
65368;SDS011;51970;53.484;49.488;2023-08-24T08:44:15;7.60;;;4.65;;
65368;SDS011;51970;53.484;49.488;2023-08-24T08:46:42;6.60;;;3.22;;
65368;SDS011;51970;53.484;49.488;2023-08-24T08:49:08;7.40;;;4.63;;
65368;SDS011;51970;53.484;49.488;2023-08-24T08:51:36;9.13;;;3.08;;
65368;SDS011;51970;53.484;49.488;2023-08-24T08:54:03;7.68;;;4.88;;
65368;SDS011;51970;53.484;49.488;2023-08-24T08:56:31;8.98;;;5.32;;
65368;SDS011;51970;53.484;49.488;2023-08-24T08:58:58;6.80;;;4.28;;
65368;SDS011;51970;53.484;49.488;2023-08-24T09:01:26;7.72;;;5.03;;
65368;SDS011;51970;53.484;49.488;2023-08-24T09:03:53;8.90;;;5.53;;
65368;SDS011;51970;53.484;49.488;2023-08-24T09:06:20;6.78;;;3.17;;
65368;SDS011;51970;53.484;49.488;2023-08-24T09:08:48;9.45;;;4.88;;
65368;SDS011;51970;53.484;49.488;2023-08-24T09:11:16;7.63;;;2.83;;
65368;SDS011;51970;53.484;49.488;2023-08-24T09:13:46;8.80;;;4.40;;
65368;SDS011;51970;53.484;49.488;2023-08-24T09:16:12;9.52;;;6.13;;
65368;SDS011;51970;53.484;49.488;2023-08-24T09:18:42;8.50;;;5.15;;
65368;SDS011;51970;53.484;49.488;2023-08-24T09:21:11;7.50;;;4.80;;
65368;SDS011;51970;53.484;49.488;2023-08-24T09:23:38;5.72;;;2.75;;
65368;SDS011;51970;53.484;49.488;2023-08-24T09:26:27;7.35;;;4.95;;
65368;SDS011;51970;53.484;49.488;2023-08-24T09:28:57;7.35;;;2.60;;
65368;SDS011;51970;53.484;49.488;2023-08-24T09:31:24;7.57;;;3.05;;
65368;SDS011;51970;53.484;49.488;2023-08-24T09:34:04;7.40;;;3.90;;
65368;SDS011;51970;53.484;49.488;2023-08-24T09:36:34;7.53;;;2.15;;
65368;SDS011;51970;53.484;49.488;2023-08-24T09:39:02;5.40;;;2.22;;
65368;SDS011;51970;53.484;49.488;2023-08-24T09:41:39;6.60;;;2.47;;
65368;SDS011;51970;53.484;49.488;2023-08-24T09:44:13;8.07;;;4.45;;
65368;SDS011;51970;53.484;49.488;2023-08-24T09:46:40;6.63;;;4.53;;
65368;SDS011;51970;53.484;49.488;2023-08-24T09:49:07;4.82;;;1.65;;
65368;SDS011;51970;53.484;49.488;2023-08-24T09:51:34;7.35;;;2.92;;
65368;SDS011;51970;53.484;49.488;2023-08-24T09:54:05;7.80;;;3.72;;
65368;SDS011;51970;53.484;49.488;2023-08-24T09:56:34;6.47;;;2.88;;
65368;SDS011;51970;53.484;49.488;2023-08-24T09:59:15;7.68;;;4.32;;
65368;SDS011;51970;53.484;49.488;2023-08-24T10:01:45;6.85;;;3.92;;
65368;SDS011;51970;53.484;49.488;2023-08-24T10:04:21;6.55;;;4.75;;
65368;SDS011;51970;53.484;49.488;2023-08-24T10:06:51;6.30;;;3.40;;
65368;SDS011;51970;53.484;49.488;2023-08-24T10:09:23;7.20;;;2.28;;
65368;SDS011;51970;53.484;49.488;2023-08-24T10:11:55;6.53;;;4.55;;
65368;SDS011;51970;53.484;49.488;2023-08-24T10:17:25;5.00;;;2.05;;
65368;SDS011;51970;53.484;49.488;2023-08-24T10:19:52;6.53;;;4.57;;
65368;SDS011;51970;53.484;49.488;2023-08-24T10:22:19;4.75;;;2.13;;
65368;SDS011;51970;53.484;49.488;2023-08-24T10:24:47;5.82;;;3.35;;
65368;SDS011;51970;53.484;49.488;2023-08-24T10:27:14;11.80;;;4.25;;
65368;SDS011;51970;53.484;49.488;2023-08-24T10:29:42;6.43;;;4.00;;
65368;SDS011;51970;53.484;49.488;2023-08-24T10:32:08;5.65;;;2.00;;
65368;SDS011;51970;53.484;49.488;2023-08-24T10:34:36;4.82;;;1.92;;
65368;SDS011;51970;53.484;49.488;2023-08-24T10:37:09;4.53;;;1.83;;
65368;SDS011;51970;53.484;49.488;2023-08-24T10:39:37;7.32;;;4.03;;
65368;SDS011;51970;53.484;49.488;2023-08-24T10:42:12;4.75;;;2.33;;
65368;SDS011;51970;53.484;49.488;2023-08-24T10:44:43;5.72;;;2.45;;
65368;SDS011;51970;53.484;49.488;2023-08-24T10:47:17;11.93;;;3.13;;
65368;SDS011;51970;53.484;49.488;2023-08-24T10:49:45;7.85;;;4.22;;
65368;SDS011;51970;53.484;49.488;2023-08-24T10:52:32;7.25;;;4.07;;
65368;SDS011;51970;53.484;49.488;2023-08-24T10:55:02;4.75;;;2.35;;
65368;SDS011;51970;53.484;49.488;2023-08-24T10:57:39;7.32;;;4.15;;
65368;SDS011;51970;53.484;49.488;2023-08-24T11:00:07;4.80;;;1.85;;
65368;SDS011;51970;53.484;49.488;2023-08-24T11:02:42;6.35;;;1.83;;
65368;SDS011;51970;53.484;49.488;2023-08-24T11:05:17;7.88;;;4.25;;
65368;SDS011;51970;53.484;49.488;2023-08-24T11:08:02;5.40;;;1.92;;
65368;SDS011;51970;53.484;49.488;2023-08-24T11:13:10;5.00;;;1.70;;
65368;SDS011;51970;53.484;49.488;2023-08-24T11:15:47;6.20;;;2.33;;
65368;SDS011;51970;53.484;49.488;2023-08-24T11:18:24;7.25;;;2.90;;
65368;SDS011;51970;53.484;49.488;2023-08-24T11:23:20;9.25;;;5.20;;
65368;SDS011;51970;53.484;49.488;2023-08-24T11:25:48;4.80;;;2.20;;
65368;SDS011;51970;53.484;49.488;2023-08-24T11:28:17;8.15;;;4.68;;
65368;SDS011;51970;53.484;49.488;2023-08-24T11:30:45;8.65;;;2.05;;
65368;SDS011;51970;53.484;49.488;2023-08-24T11:33:12;5.88;;;2.55;;
65368;SDS011;51970;53.484;49.488;2023-08-24T11:35:41;6.85;;;3.53;;
65368;SDS011;51970;53.484;49.488;2023-08-24T11:38:08;5.25;;;2.65;;
65368;SDS011;51970;53.484;49.488;2023-08-24T11:40:35;5.65;;;2.72;;
65368;SDS011;51970;53.484;49.488;2023-08-24T11:43:03;6.72;;;2.55;;
65368;SDS011;51970;53.484;49.488;2023-08-24T11:45:31;5.85;;;2.53;;
65368;SDS011;51970;53.484;49.488;2023-08-24T11:47:59;5.32;;;1.83;;
65368;SDS011;51970;53.484;49.488;2023-08-24T11:50:30;5.55;;;2.15;;
65368;SDS011;51970;53.484;49.488;2023-08-24T11:52:57;7.72;;;6.10;;
65368;SDS011;51970;53.484;49.488;2023-08-24T11:55:25;5.95;;;2.13;;
65368;SDS011;51970;53.484;49.488;2023-08-24T11:57:51;6.00;;;3.88;;
65368;SDS011;51970;53.484;49.488;2023-08-24T12:00:19;6.60;;;4.57;;
65368;SDS011;51970;53.484;49.488;2023-08-24T12:02:48;8.45;;;3.95;;
65368;SDS011;51970;53.484;49.488;2023-08-24T12:05:25;6.75;;;2.00;;
65368;SDS011;51970;53.484;49.488;2023-08-24T12:07:53;5.78;;;2.10;;
65368;SDS011;51970;53.484;49.488;2023-08-24T12:10:21;8.23;;;3.92;;
65368;SDS011;51970;53.484;49.488;2023-08-24T12:12:47;14.43;;;5.78;;
65368;SDS011;51970;53.484;49.488;2023-08-24T12:15:17;6.18;;;3.97;;
65368;SDS011;51970;53.484;49.488;2023-08-24T12:17:48;6.18;;;4.63;;
65368;SDS011;51970;53.484;49.488;2023-08-24T12:20:19;7.60;;;2.00;;
65368;SDS011;51970;53.484;49.488;2023-08-24T12:22:50;6.05;;;3.45;;
65368;SDS011;51970;53.484;49.488;2023-08-24T12:25:24;5.53;;;3.53;;
65368;SDS011;51970;53.484;49.488;2023-08-24T12:27:51;8.25;;;3.60;;
65368;SDS011;51970;53.484;49.488;2023-08-24T12:30:18;7.75;;;4.53;;
65368;SDS011;51970;53.484;49.488;2023-08-24T12:32:46;6.70;;;3.97;;
65368;SDS011;51970;53.484;49.488;2023-08-24T12:35:15;7.72;;;2.42;;
65368;SDS011;51970;53.484;49.488;2023-08-24T12:37:42;5.95;;;2.47;;
65368;SDS011;51970;53.484;49.488;2023-08-24T12:40:08;6.20;;;3.92;;
65368;SDS011;51970;53.484;49.488;2023-08-24T12:42:34;9.25;;;4.53;;
65368;SDS011;51970;53.484;49.488;2023-08-24T12:45:01;6.18;;;3.83;;
65368;SDS011;51970;53.484;49.488;2023-08-24T12:47:27;7.47;;;2.60;;
65368;SDS011;51970;53.484;49.488;2023-08-24T12:49:53;5.97;;;3.42;;
65368;SDS011;51970;53.484;49.488;2023-08-24T12:52:21;5.85;;;3.95;;
65368;SDS011;51970;53.484;49.488;2023-08-24T12:54:49;4.90;;;1.70;;
65368;SDS011;51970;53.484;49.488;2023-08-24T12:57:15;5.70;;;2.20;;
65368;SDS011;51970;53.484;49.488;2023-08-24T12:59:40;5.03;;;2.17;;
65368;SDS011;51970;53.484;49.488;2023-08-24T13:02:06;3.83;;;1.42;;
65368;SDS011;51970;53.484;49.488;2023-08-24T13:04:33;7.05;;;4.03;;
65368;SDS011;51970;53.484;49.488;2023-08-24T13:06:59;6.07;;;4.22;;
65368;SDS011;51970;53.484;49.488;2023-08-24T13:09:25;9.48;;;3.95;;
65368;SDS011;51970;53.484;49.488;2023-08-24T13:11:51;4.53;;;1.88;;
65368;SDS011;51970;53.484;49.488;2023-08-24T13:14:17;7.90;;;3.75;;
65368;SDS011;51970;53.484;49.488;2023-08-24T13:16:43;7.85;;;5.28;;
65368;SDS011;51970;53.484;49.488;2023-08-24T13:19:10;7.45;;;4.63;;
65368;SDS011;51970;53.484;49.488;2023-08-24T13:21:36;6.65;;;4.25;;
65368;SDS011;51970;53.484;49.488;2023-08-24T13:24:02;5.80;;;2.00;;
65368;SDS011;51970;53.484;49.488;2023-08-24T13:26:30;5.93;;;3.70;;
65368;SDS011;51970;53.484;49.488;2023-08-24T13:28:56;8.73;;;3.67;;
65368;SDS011;51970;53.484;49.488;2023-08-24T13:31:23;6.05;;;3.28;;
65368;SDS011;51970;53.484;49.488;2023-08-24T13:33:49;6.40;;;4.00;;
65368;SDS011;51970;53.484;49.488;2023-08-24T13:36:15;4.25;;;1.40;;
65368;SDS011;51970;53.484;49.488;2023-08-24T13:38:41;4.93;;;1.95;;
65368;SDS011;51970;53.484;49.488;2023-08-24T13:41:09;5.88;;;1.80;;
65368;SDS011;51970;53.484;49.488;2023-08-24T13:43:35;7.85;;;3.55;;
65368;SDS011;51970;53.484;49.488;2023-08-24T13:46:01;7.13;;;1.88;;
65368;SDS011;51970;53.484;49.488;2023-08-24T13:48:27;5.53;;;2.72;;
65368;SDS011;51970;53.484;49.488;2023-08-24T13:50:54;6.95;;;3.92;;
65368;SDS011;51970;53.484;49.488;2023-08-24T13:53:22;7.45;;;2.13;;
65368;SDS011;51970;53.484;49.488;2023-08-24T13:55:48;5.97;;;3.95;;
65368;SDS011;51970;53.484;49.488;2023-08-24T13:58:14;5.60;;;2.63;;
65368;SDS011;51970;53.484;49.488;2023-08-24T14:00:40;7.88;;;1.95;;
65368;SDS011;51970;53.484;49.488;2023-08-24T14:03:06;7.63;;;5.10;;
65368;SDS011;51970;53.484;49.488;2023-08-24T14:05:32;5.85;;;2.05;;
65368;SDS011;51970;53.484;49.488;2023-08-24T14:07:58;6.07;;;3.97;;
65368;SDS011;51970;53.484;49.488;2023-08-24T14:10:24;11.32;;;5.03;;
65368;SDS011;51970;53.484;49.488;2023-08-24T14:12:51;9.77;;;4.38;;
65368;SDS011;51970;53.484;49.488;2023-08-24T14:15:17;7.88;;;4.72;;
65368;SDS011;51970;53.484;49.488;2023-08-24T14:17:43;9.55;;;4.28;;
65368;SDS011;51970;53.484;49.488;2023-08-24T14:20:09;6.57;;;2.10;;
65368;SDS011;51970;53.484;49.488;2023-08-24T14:22:35;7.78;;;4.68;;
65368;SDS011;51970;53.484;49.488;2023-08-24T14:25:01;10.38;;;5.68;;
65368;SDS011;51970;53.484;49.488;2023-08-24T14:27:27;14.63;;;5.95;;
65368;SDS011;51970;53.484;49.488;2023-08-24T14:29:53;12.38;;;7.65;;
65368;SDS011;51970;53.484;49.488;2023-08-24T14:32:19;21.35;;;12.15;;
65368;SDS011;51970;53.484;49.488;2023-08-24T14:34:48;16.02;;;7.78;;
65368;SDS011;51970;53.484;49.488;2023-08-24T14:37:14;8.00;;;3.88;;
65368;SDS011;51970;53.484;49.488;2023-08-24T14:39:40;10.40;;;4.18;;